Time;durP1;ratioP1;P1;durP2;ratioP2;P2;SDS_P1;SDS_P2;PMS_P1;PMS_P2;Temp;Humidity;BMP_temperature;BMP_pressure;BME280_temperature;BME280_humidity;BME280_pressure;Samples;Min_cycle;Max_cycle;Signal;HPM_P1;HPM_P2
2021/04/21 00:00:15;;;;;;;22.70;20.30;;;10.90;99.90;;;;;;5110525;27;20586;-69
2021/04/21 00:02:43;;;;;;;22.50;20.20;;;10.90;99.90;;;;;;5110208;28;20429;-69
2021/04/21 00:05:09;;;;;;;24.57;21.50;;;10.80;99.90;;;;;;5110458;28;20805;-68
2021/04/21 00:07:36;;;;;;;21.93;19.73;;;10.80;99.90;;;;;;5110151;28;20434;-69
2021/04/21 00:10:05;;;;;;;25.07;22.57;;;10.80;99.90;;;;;;5110139;28;20438;-68
2021/04/21 00:12:31;;;;;;;25.60;23.03;;;10.70;99.90;;;;;;5120807;28;20419;-69
2021/04/21 00:14:57;;;;;;;24.00;21.40;;;10.70;99.90;;;;;;5130486;27;20513;-68
2021/04/21 00:17:24;;;;;;;25.40;22.07;;;10.70;99.90;;;;;;5130468;27;20570;-68
2021/04/21 00:19:53;;;;;;;22.90;20.67;;;10.60;99.90;;;;;;5130691;27;20157;-68
2021/04/21 00:22:20;;;;;;;24.97;22.17;;;10.50;99.90;;;;;;5130486;27;20398;-69
2021/04/21 00:24:48;;;;;;;22.37;20.17;;;10.50;99.90;;;;;;5130217;27;20408;-69
2021/04/21 00:27:16;;;;;;;23.23;20.00;;;10.50;99.90;;;;;;5130520;27;20509;-69
2021/04/21 00:29:45;;;;;;;25.13;22.47;;;10.50;99.90;;;;;;5129256;27;20878;-69
2021/04/21 00:32:12;;;;;;;26.40;21.13;;;10.50;99.90;;;;;;5130235;27;20388;-69
2021/04/21 00:34:39;;;;;;;23.53;20.80;;;10.50;99.90;;;;;;5130315;27;20390;-69
2021/04/21 00:37:06;;;;;;;24.13;21.73;;;10.40;99.90;;;;;;5129063;27;20900;-69
2021/04/21 00:39:33;;;;;;;24.27;21.77;;;10.40;99.90;;;;;;5116101;28;20470;-68
2021/04/21 00:50:24;;;;;;;23.17;20.97;;;10.30;99.90;;;;;;5110914;27;20511;-68
2021/04/21 00:52:56;;;;;;;23.40;21.20;;;10.30;99.90;;;;;;5110813;28;20476;-68
2021/04/21 00:55:56;;;;;;;24.20;21.90;;;10.20;99.90;;;;;;5110890;28;20448;-68
2021/04/21 01:01:02;;;;;;;23.57;21.30;;;10.20;99.90;;;;;;5110824;27;20558;-67
2021/04/21 01:03:28;;;;;;;25.30;22.30;;;10.20;99.90;;;;;;5110202;28;20409;-67
2021/04/21 01:06:02;;;;;;;24.57;22.10;;;10.10;99.90;;;;;;5110771;28;20395;-67
2021/04/21 01:08:33;;;;;;;24.93;22.33;;;10.10;99.90;;;;;;5110764;28;20384;-68
2021/04/21 01:11:22;;;;;;;24.87;22.27;;;10.10;99.90;;;;;;5111079;28;20442;-68
2021/04/21 01:13:51;;;;;;;28.90;23.57;;;10.10;99.90;;;;;;5109571;28;20886;-67
2021/04/21 01:16:22;;;;;;;24.57;22.17;;;10.10;99.90;;;;;;5110558;28;20380;-67
2021/04/21 01:18:50;;;;;;;26.07;22.90;;;10.10;99.90;;;;;;5110783;28;20882;-67
2021/04/21 01:27:11;;;;;;;25.67;23.17;;;10.10;99.90;;;;;;5111025;27;20509;-68
2021/04/21 01:29:44;;;;;;;27.33;24.40;;;10.10;99.90;;;;;;5110989;28;20380;-68
2021/04/21 01:32:29;;;;;;;24.60;22.30;;;10.10;99.90;;;;;;5110891;28;20483;-68
2021/04/21 01:34:55;;;;;;;25.70;23.30;;;10.00;99.90;;;;;;5110907;28;20795;-68
2021/04/21 01:37:26;;;;;;;26.20;23.60;;;10.00;99.90;;;;;;5101483;28;20475;-68
2021/04/21 01:42:49;;;;;;;25.60;23.00;;;10.00;99.90;;;;;;5110930;27;20506;-68
2021/04/21 01:45:20;;;;;;;25.10;22.70;;;10.00;99.90;;;;;;5110940;28;20386;-68
2021/04/21 01:47:47;;;;;;;27.60;24.73;;;10.00;99.90;;;;;;5110723;28;20475;-68
2021/04/21 01:50:14;;;;;;;28.83;23.10;;;10.00;99.90;;;;;;5110743;28;21310;-68
2021/04/21 01:52:47;;;;;;;25.60;22.33;;;10.00;99.90;;;;;;5110885;28;20857;-68
2021/04/21 02:00:45;;;;;;;29.80;26.83;;;9.90;99.90;;;;;;5110926;27;20509;-68
2021/04/21 02:03:23;;;;;;;28.27;25.30;;;9.90;99.90;;;;;;5110715;28;20735;-68
2021/04/21 02:08:36;;;;;;;26.10;23.40;;;9.90;99.90;;;;;;5090871;28;20507;-67
2021/04/21 02:11:14;;;;;;;25.80;23.13;;;9.80;99.90;;;;;;5083745;28;20925;-67
2021/04/21 02:16:45;;;;;;;26.03;23.33;;;9.80;99.90;;;;;;5110912;27;20509;-68
2021/04/21 02:19:38;;;;;;;27.80;24.90;;;9.70;99.90;;;;;;5109667;28;20429;-68
2021/04/21 02:22:29;;;;;;;28.03;24.07;;;9.70;99.90;;;;;;5110328;28;20391;-70
2021/04/21 02:28:11;;;;;;;26.53;23.73;;;9.70;99.90;;;;;;5129142;27;20878;-71
2021/04/21 02:33:27;;;;;;;27.20;24.47;;;9.60;99.90;;;;;;5111005;27;20516;-71
2021/04/21 02:36:00;;;;;;;26.77;23.90;;;9.50;99.90;;;;;;5110884;28;20388;-71
2021/04/21 02:38:52;;;;;;;28.23;25.43;;;9.50;99.90;;;;;;5111086;28;20441;-71
2021/04/21 02:41:25;;;;;;;28.27;25.27;;;9.50;99.90;;;;;;5095560;28;20388;-70
2021/04/21 02:47:06;;;;;;;29.17;26.27;;;9.40;99.90;;;;;;5110917;27;20494;-71
2021/04/21 02:52:24;;;;;;;27.43;24.47;;;9.40;99.90;;;;;;5111337;27;20509;-70
2021/04/21 02:55:03;;;;;;;27.43;24.80;;;9.30;99.90;;;;;;5110955;28;20437;-70
2021/04/21 03:00:15;;;;;;;27.07;24.23;;;9.30;99.90;;;;;;5111044;27;20583;-69
2021/04/21 03:02:52;;;;;;;28.85;25.92;;;9.30;99.90;;;;;;5110013;28;20938;-69
2021/04/21 03:05:24;;;;;;;26.10;23.10;;;9.30;99.90;;;;;;5110746;28;20515;-69
2021/04/21 03:10:38;;;;;;;28.50;25.60;;;9.20;99.90;;;;;;5111150;27;21038;-70
2021/04/21 03:13:14;;;;;;;28.43;25.27;;;9.20;99.90;;;;;;5110994;28;20424;-70
2021/04/21 03:15:45;;;;;;;28.57;25.63;;;9.10;99.90;;;;;;5111003;28;20430;-70
2021/04/21 03:18:19;;;;;;;29.80;25.23;;;9.10;99.90;;;;;;5110821;28;20393;-70
2021/04/21 03:20:51;;;;;;;30.50;27.23;;;9.10;99.90;;;;;;5090319;28;20431;-70
2021/04/21 03:23:19;;;;;;;29.67;26.47;;;9.10;99.90;;;;;;5090515;28;20425;-70
2021/04/21 03:25:49;;;;;;;27.57;24.73;;;9.10;99.90;;;;;;5090412;28;20421;-70
2021/04/21 03:28:18;;;;;;;32.17;28.73;;;9.10;99.90;;;;;;5090222;28;20427;-70
2021/04/21 03:30:46;;;;;;;29.73;26.70;;;9.00;99.90;;;;;;5090487;28;20166;-70
2021/04/21 03:33:20;;;;;;;27.30;24.77;;;9.00;99.90;;;;;;5090138;28;20886;-70
2021/04/21 03:35:50;;;;;;;30.23;26.90;;;9.00;99.90;;;;;;5090631;28;20405;-68
2021/04/21 03:38:16;;;;;;;27.67;24.97;;;8.90;99.90;;;;;;5090626;28;20401;-70
2021/04/21 03:40:42;;;;;;;29.27;26.20;;;8.90;99.90;;;;;;5090090;28;20863;-70
2021/04/21 03:43:09;;;;;;;29.73;26.73;;;8.90;99.90;;;;;;5090122;28;20397;-70
2021/04/21 03:45:35;;;;;;;29.87;26.63;;;8.90;99.90;;;;;;5090030;28;20409;-68
2021/04/21 03:48:02;;;;;;;33.73;27.83;;;8.90;99.90;;;;;;5089829;28;20882;-70
2021/04/21 03:50:29;;;;;;;28.57;25.57;;;8.90;99.90;;;;;;5089817;28;20883;-68
2021/04/21 03:53:00;;;;;;;31.80;27.13;;;8.90;99.90;;;;;;5090696;28;20405;-68
2021/04/21 03:55:26;;;;;;;30.17;27.00;;;8.90;99.90;;;;;;5089610;28;20389;-70
2021/04/21 03:57:57;;;;;;;29.53;26.53;;;9.00;99.90;;;;;;5089780;28;20398;-70
2021/04/21 04:00:25;;;;;;;34.17;29.53;;;9.00;99.90;;;;;;5089519;28;20456;-70
2021/04/21 04:02:54;;;;;;;29.47;26.33;;;9.00;99.90;;;;;;5089610;28;20929;-70
2021/04/21 04:05:25;;;;;;;32.30;28.93;;;9.00;99.90;;;;;;5089477;28;20404;-70
2021/04/21 04:07:53;;;;;;;29.40;26.40;;;9.00;99.90;;;;;;5090823;28;20385;-69
2021/04/21 04:10:22;;;;;;;30.50;27.50;;;9.00;99.90;;;;;;5098527;28;20555;-68
2021/04/21 04:12:52;;;;;;;31.47;28.20;;;9.10;99.90;;;;;;5109664;28;20862;-68
2021/04/21 04:15:18;;;;;;;31.37;28.07;;;9.10;99.90;;;;;;5109773;28;20504;-69
2021/04/21 04:17:48;;;;;;;30.80;27.33;;;9.10;99.90;;;;;;5109613;28;20438;-69
2021/04/21 04:20:15;;;;;;;31.83;28.43;;;9.20;99.90;;;;;;5106709;28;20436;-70
2021/04/21 04:22:47;;;;;;;30.60;27.43;;;9.20;99.90;;;;;;5097798;28;20409;-70
2021/04/21 04:25:13;;;;;;;32.03;28.70;;;9.20;99.90;;;;;;5096511;28;20950;-69
2021/04/21 04:27:40;;;;;;;31.77;28.57;;;9.20;99.90;;;;;;5095112;28;20419;-69
2021/04/21 04:30:06;;;;;;;32.70;29.27;;;9.20;99.90;;;;;;5095720;28;20433;-69
2021/04/21 04:32:37;;;;;;;31.53;28.10;;;9.20;99.90;;;;;;5095950;28;20389;-69
2021/04/21 04:35:03;;;;;;;29.00;25.97;;;9.30;99.90;;;;;;5097140;28;20466;-70
2021/04/21 04:37:30;;;;;;;32.70;29.30;;;9.30;99.90;;;;;;5096577;28;20926;-69
2021/04/21 04:39:55;;;;;;;33.17;29.83;;;9.30;99.90;;;;;;5095734;28;20390;-69
2021/04/21 04:42:22;;;;;;;34.30;29.17;;;9.30;99.90;;;;;;5095723;28;20389;-69
2021/04/21 04:44:50;;;;;;;31.98;28.52;;;9.30;99.90;;;;;;5094780;28;20177;-69
2021/04/21 04:47:23;;;;;;;31.60;28.40;;;9.30;99.90;;;;;;5095754;28;20159;-70
2021/04/21 04:49:55;;;;;;;33.90;28.83;;;9.30;99.90;;;;;;5096136;28;20445;-69
2021/04/21 04:52:24;;;;;;;31.10;27.93;;;9.30;99.90;;;;;;5095819;28;20390;-69
2021/04/21 04:54:51;;;;;;;32.90;28.07;;;9.30;99.90;;;;;;5095403;28;20486;-69
2021/04/21 04:57:18;;;;;;;32.20;28.67;;;9.30;99.90;;;;;;5095432;28;20394;-69
2021/04/21 04:59:47;;;;;;;33.57;29.97;;;9.30;99.90;;;;;;5095366;28;20429;-69
2021/04/21 05:02:15;;;;;;;32.37;28.97;;;9.30;99.90;;;;;;5086022;28;20446;-69
2021/04/21 05:05:04;;;;;;;32.67;29.27;;;9.30;99.90;;;;;;5075819;28;20452;-70
2021/04/21 05:10:36;;;;;;;37.60;32.07;;;9.40;99.90;;;;;;5111148;27;20499;-70
2021/04/21 05:13:04;;;;;;;34.47;30.73;;;9.50;99.90;;;;;;5111002;28;20404;-69
2021/04/21 05:49:50;;;;;;;33.57;27.10;;;10.40;99.90;;;;;;5091550;27;20507;-69
2021/04/21 05:55:39;;;;;;;34.77;30.80;;;10.40;99.90;;;;;;5126903;27;20578;-69
2021/04/21 06:01:22;;;;;;;30.57;27.37;;;10.40;99.90;;;;;;5111700;27;20513;-70
2021/04/21 06:03:56;;;;;;;35.47;31.57;;;10.40;99.90;;;;;;5076040;28;20485;-70
2021/04/21 06:06:22;;;;;;;33.63;29.93;;;10.50;99.90;;;;;;5090689;28;20889;-70
2021/04/21 06:08:48;;;;;;;33.97;30.30;;;10.50;99.90;;;;;;5091141;28;20489;-70
2021/04/21 06:13:58;;;;;;;36.07;31.67;;;10.70;99.90;;;;;;5137471;27;20917;-70
2021/04/21 06:16:25;;;;;;;36.27;31.10;;;10.80;99.90;;;;;;5152218;27;20418;-70
2021/04/21 06:21:37;;;;;;;35.23;31.53;;;10.90;99.90;;;;;;5131409;27;20556;-68
2021/04/21 06:29:43;;;;;;;33.93;30.23;;;11.30;99.90;;;;;;5110786;27;21105;-69
2021/04/21 06:32:13;;;;;;;35.20;31.43;;;11.40;99.90;;;;;;5117488;28;20394;-70
2021/04/21 06:34:39;;;;;;;36.80;32.53;;;11.40;99.90;;;;;;5130511;28;20256;-70
2021/04/21 06:37:05;;;;;;;36.90;32.93;;;11.50;99.90;;;;;;5130516;28;20418;-70
2021/04/21 06:39:32;;;;;;;37.00;33.03;;;11.60;99.90;;;;;;5130765;28;20422;-70
2021/04/21 06:42:00;;;;;;;37.73;33.13;;;11.60;99.90;;;;;;5130875;28;20165;-70
2021/04/21 06:44:48;;;;;;;38.83;34.50;;;11.70;99.90;;;;;;5093133;28;20412;-70
2021/04/21 06:47:24;;;;;;;36.87;32.97;;;11.80;99.90;;;;;;5089884;28;20424;-69
2021/04/21 06:49:59;;;;;;;38.63;32.23;;;11.90;99.90;;;;;;5090390;28;20458;-70
2021/04/21 06:52:36;;;;;;;36.40;32.60;;;12.10;99.90;;;;;;5089693;28;20400;-70
2021/04/21 06:57:41;;;;;;;38.90;34.77;;;12.40;99.90;;;;;;5108655;27;20513;-70
2021/04/21 07:00:13;;;;;;;42.73;35.00;;;12.60;99.90;;;;;;5104028;28;20445;-70
2021/04/21 07:11:58;;;;;;;45.37;35.87;;;12.90;99.90;;;;;;5071677;27;20544;-78
2021/04/21 07:14:26;;;;;;;43.50;38.40;;;13.70;99.90;;;;;;5071802;28;20420;-78
2021/04/21 07:16:53;;;;;;;41.63;37.10;;;13.80;99.90;;;;;;5072322;28;20418;-78
2021/04/21 07:19:22;;;;;;;47.67;40.20;;;13.90;99.90;;;;;;5072487;28;20426;-78
2021/04/21 07:21:48;;;;;;;50.50;37.70;;;14.00;99.90;;;;;;5052271;28;20451;-78
2021/04/21 07:24:18;;;;;;;47.00;38.80;;;14.10;99.90;;;;;;5058665;28;20925;-78
2021/04/21 07:26:47;;;;;;;53.10;44.40;;;14.20;99.90;;;;;;5072893;28;20430;-78
2021/04/21 07:29:19;;;;;;;52.93;43.53;;;14.30;99.90;;;;;;5073479;28;20962;-78
2021/04/21 07:31:45;;;;;;;48.97;40.70;;;14.30;99.90;;;;;;5076557;28;20796;-79
2021/04/21 07:34:17;;;;;;;47.20;39.90;;;14.40;99.90;;;;;;5075558;28;20451;-79
2021/04/21 07:36:46;;;;;;;42.80;38.20;;;14.50;99.90;;;;;;5050248;28;20423;-78
2021/04/21 07:39:14;;;;;;;46.37;38.93;;;14.60;99.90;;;;;;5085900;28;20456;-78
2021/04/21 07:41:44;;;;;;;44.27;39.23;;;14.70;99.90;;;;;;5053934;28;20906;-78
2021/04/21 07:44:30;;;;;;;48.83;38.33;;;14.80;99.90;;;;;;5052603;28;20461;-78
2021/04/21 07:47:12;;;;;;;40.33;35.93;;;14.90;99.90;;;;;;5060246;28;20429;-78
2021/04/21 07:49:44;;;;;;;43.17;34.23;;;14.90;99.90;;;;;;5048659;28;20492;-77
2021/04/21 07:57:45;;;;;;;44.70;33.90;;;15.10;99.90;;;;;;5132122;27;20530;-70
2021/04/21 08:00:24;;;;;;;43.27;35.40;;;16.40;99.90;;;;;;5081333;28;20462;-70
2021/04/21 08:02:50;;;;;;;43.70;33.20;;;17.00;99.90;;;;;;5069966;28;20406;-70
2021/04/21 08:05:16;;;;;;;39.23;34.80;;;17.40;99.90;;;;;;5068006;28;20382;-70
2021/04/21 08:07:52;;;;;;;37.93;33.97;;;17.80;98.50;;;;;;5066278;28;20441;-70
2021/04/21 08:12:59;;;;;;;42.90;32.60;;;18.00;96.30;;;;;;5086184;28;20519;-70
2021/04/21 08:15:31;;;;;;;38.03;32.67;;;18.10;95.50;;;;;;5070308;28;20382;-70
2021/04/21 08:18:00;;;;;;;33.50;29.90;;;18.30;94.90;;;;;;5069890;28;20402;-70
2021/04/21 08:23:04;;;;;;;34.00;30.40;;;18.50;91.90;;;;;;5128925;27;20500;-70
2021/04/21 08:25:30;;;;;;;34.90;31.17;;;18.50;90.40;;;;;;5109342;28;20461;-70
2021/04/21 08:27:57;;;;;;;40.20;32.77;;;18.40;90.70;;;;;;5109450;27;20438;-70
2021/04/21 08:30:23;;;;;;;39.93;31.80;;;18.50;90.10;;;;;;5102648;28;20413;-70
2021/04/21 08:32:49;;;;;;;35.63;30.90;;;18.60;87.00;;;;;;5090099;28;20409;-68
2021/04/21 08:35:15;;;;;;;32.83;29.33;;;18.60;88.30;;;;;;5109889;28;20392;-68
2021/04/21 08:37:42;;;;;;;41.60;33.47;;;18.80;88.70;;;;;;5110843;28;20160;-68
2021/04/21 08:40:11;;;;;;;34.97;30.90;;;18.90;85.20;;;;;;5111015;28;20384;-67
2021/04/21 08:42:41;;;;;;;32.73;29.40;;;18.90;84.20;;;;;;5099587;28;21009;-68
2021/04/21 08:45:08;;;;;;;33.17;29.67;;;19.00;85.70;;;;;;5108666;28;20431;-70
2021/04/21 08:47:35;;;;;;;32.53;29.10;;;19.00;85.00;;;;;;5110665;28;20446;-70
2021/04/21 08:50:01;;;;;;;34.40;28.60;;;18.90;85.00;;;;;;5110390;28;20376;-70
2021/04/21 08:52:36;;;;;;;32.30;29.20;;;18.90;83.30;;;;;;5100263;28;20421;-70
2021/04/21 08:55:02;;;;;;;28.30;25.33;;;19.00;81.90;;;;;;5089874;28;20417;-70
2021/04/21 08:57:28;;;;;;;31.03;27.73;;;19.00;77.50;;;;;;5109854;28;20763;-70
2021/04/21 08:59:54;;;;;;;26.13;23.40;;;18.90;74.80;;;;;;5109404;28;20459;-70
2021/04/21 09:02:20;;;;;;;25.90;22.50;;;18.80;71.20;;;;;;5109638;28;20534;-70
2021/04/21 09:04:46;;;;;;;25.60;22.80;;;18.90;71.00;;;;;;5110002;28;20861;-70
2021/04/21 09:07:12;;;;;;;27.33;24.10;;;18.80;68.90;;;;;;5097726;28;20447;-70
2021/04/21 09:09:38;;;;;;;26.13;23.33;;;18.80;68.10;;;;;;5089788;28;20396;-70
2021/04/21 09:12:05;;;;;;;28.80;25.30;;;18.80;68.60;;;;;;5096447;28;20788;-70
2021/04/21 09:14:32;;;;;;;24.70;22.17;;;18.70;68.60;;;;;;5109422;28;20587;-70
2021/04/21 09:16:58;;;;;;;27.93;22.30;;;18.60;67.50;;;;;;5109538;28;20467;-70
2021/04/21 09:19:23;;;;;;;24.53;21.57;;;18.50;65.70;;;;;;5106988;28;20905;-70
2021/04/21 09:22:09;;;;;;;25.10;22.40;;;18.50;64.20;;;;;;5109673;28;20460;-70
2021/04/21 09:24:37;;;;;;;26.53;20.90;;;18.20;65.50;;;;;;5110307;28;20395;-70
2021/04/21 09:27:33;;;;;;;25.57;22.70;;;18.10;66.10;;;;;;5109772;27;20920;-70
2021/04/21 09:30:20;;;;;;;29.40;23.23;;;18.20;67.70;;;;;;5105915;28;20746;-70
2021/04/21 09:32:50;;;;;;;23.57;20.70;;;18.20;67.80;;;;;;5090763;28;20428;-70
2021/04/21 09:35:25;;;;;;;20.33;18.23;;;18.30;68.20;;;;;;5095963;28;20392;-70
2021/04/21 09:37:53;;;;;;;18.63;16.93;;;18.50;65.30;;;;;;5096030;28;20472;-70
2021/04/21 09:40:46;;;;;;;16.97;11.97;;;18.80;59.30;;;;;;5095709;28;20419;-70
2021/04/21 09:43:18;;;;;;;12.33;10.00;;;19.20;52.80;;;;;;5110736;28;20422;-70
2021/04/21 09:45:46;;;;;;;11.33;10.10;;;19.50;51.20;;;;;;5099113;28;20418;-70
2021/04/21 09:48:15;;;;;;;16.90;12.00;;;19.80;49.00;;;;;;5081471;27;20401;-70
2021/04/21 09:50:43;;;;;;;11.63;10.60;;;20.10;48.10;;;;;;5085102;28;21087;-68
2021/04/21 09:53:26;;;;;;;10.87;9.77;;;20.20;46.60;;;;;;5093612;28;20912;-68
2021/04/21 10:06:53;;;;;;;11.57;10.47;;;20.60;44.30;;;;;;5085993;27;20560;-70
2021/04/21 10:09:38;;;;;;;12.20;11.10;;;20.60;44.20;;;;;;5071149;28;20439;-70
2021/04/21 10:12:25;;;;;;;12.80;10.20;;;20.50;44.60;;;;;;5069477;28;20476;-70
2021/04/21 10:15:11;;;;;;;11.17;10.20;;;20.60;44.90;;;;;;5068962;28;20413;-70
2021/04/21 10:17:40;;;;;;;14.93;11.47;;;20.50;44.50;;;;;;5069046;28;20435;-70
2021/04/21 10:20:08;;;;;;;13.50;12.20;;;20.40;44.80;;;;;;5070156;28;20398;-70
2021/04/21 10:22:35;;;;;;;12.60;11.40;;;20.20;45.50;;;;;;5070253;28;20867;-70
2021/04/21 10:25:01;;;;;;;12.20;11.07;;;20.10;45.90;;;;;;5069194;28;20453;-70
2021/04/21 10:27:27;;;;;;;14.27;10.63;;;20.00;45.40;;;;;;5070237;28;20913;-70
2021/04/21 10:29:54;;;;;;;11.73;10.63;;;20.00;44.90;;;;;;5069802;28;20163;-70
2021/04/21 10:32:20;;;;;;;12.87;9.47;;;20.00;44.50;;;;;;5069708;28;20421;-70
2021/04/21 10:34:47;;;;;;;12.17;10.97;;;19.80;44.10;;;;;;5069547;28;20894;-70
2021/04/21 10:37:14;;;;;;;12.50;10.37;;;19.60;45.20;;;;;;5070713;28;20398;-70
2021/04/21 10:39:42;;;;;;;12.77;11.47;;;19.30;45.20;;;;;;5070128;28;20408;-70
2021/04/21 10:42:17;;;;;;;12.63;11.43;;;19.20;46.00;;;;;;5069608;28;20482;-70
2021/04/21 10:44:45;;;;;;;9.97;9.07;;;19.20;46.10;;;;;;5069356;28;20445;-70
2021/04/21 10:47:15;;;;;;;12.07;10.97;;;19.10;45.70;;;;;;5069733;28;20406;-70
2021/04/21 10:57:35;;;;;;;14.00;10.87;;;19.10;46.00;;;;;;5110591;27;20510;-69
2021/04/21 11:05:20;;;;;;;14.40;12.97;;;18.70;46.90;;;;;;5131707;27;20561;-69
2021/04/21 11:10:41;;;;;;;12.37;11.17;;;18.40;47.80;;;;;;5111076;27;20510;-69
2021/04/21 11:13:08;;;;;;;11.60;9.97;;;18.30;47.40;;;;;;5111098;28;20384;-70
2021/04/21 11:21:03;;;;;;;13.17;11.87;;;18.30;46.70;;;;;;5071277;28;20554;-70
2021/04/21 11:37:17;;;;;;;14.37;12.80;;;18.30;48.10;;;;;;5111201;27;20521;-70
2021/04/21 11:44:59;;;;;;;17.13;15.53;;;18.40;49.20;;;;;;5131260;27;20508;-68
2021/04/21 11:50:10;;;;;;;16.97;15.17;;;18.30;50.40;;;;;;5075657;27;20512;-71
2021/04/21 11:55:26;;;;;;;21.13;17.17;;;18.20;50.70;;;;;;5090584;27;20858;-70
2021/04/21 11:57:54;;;;;;;20.60;17.40;;;18.20;50.70;;;;;;5090675;28;20466;-70
2021/04/21 12:00:22;;;;;;;18.27;16.43;;;18.20;50.70;;;;;;5090184;28;20436;-70
2021/04/21 12:02:48;;;;;;;19.70;17.00;;;18.10;50.90;;;;;;5076839;28;20516;-70
2021/04/21 12:05:20;;;;;;;18.27;16.13;;;18.10;50.70;;;;;;5070893;28;20448;-70
2021/04/21 12:07:46;;;;;;;24.83;20.20;;;18.20;51.90;;;;;;5070164;28;20831;-69
2021/04/21 12:10:15;;;;;;;22.10;16.73;;;18.30;51.20;;;;;;5070075;28;20480;-70
2021/04/21 12:12:41;;;;;;;16.00;13.67;;;18.40;51.00;;;;;;5070760;28;20485;-70
2021/04/21 12:15:09;;;;;;;15.83;14.23;;;18.50;50.00;;;;;;5069786;28;20902;-70
2021/04/21 12:17:47;;;;;;;15.87;13.00;;;18.40;49.70;;;;;;5070376;28;20156;-70
2021/04/21 12:20:20;;;;;;;13.60;11.67;;;18.40;49.10;;;;;;5070299;28;20433;-70
2021/04/21 12:22:46;;;;;;;12.50;11.30;;;18.40;49.40;;;;;;5074698;28;20523;-70
2021/04/21 12:25:12;;;;;;;13.70;12.10;;;18.30;49.70;;;;;;5090094;28;20389;-70
2021/04/21 12:27:37;;;;;;;13.27;11.97;;;18.30;49.70;;;;;;5090120;28;20627;-70
2021/04/21 12:30:13;;;;;;;12.20;10.93;;;18.30;49.30;;;;;;5089871;28;20443;-70
2021/04/21 12:32:38;;;;;;;15.87;12.53;;;18.30;49.10;;;;;;5090606;28;20155;-70
2021/04/21 12:35:06;;;;;;;13.77;12.00;;;18.20;49.50;;;;;;5089890;28;20451;-70
2021/04/21 12:37:31;;;;;;;18.80;11.67;;;18.10;50.20;;;;;;5089916;28;20156;-70
2021/04/21 12:39:57;;;;;;;16.60;11.80;;;18.00;50.30;;;;;;5089187;28;20535;-70
2021/04/21 12:42:22;;;;;;;14.30;11.77;;;18.00;49.90;;;;;;5090256;28;20657;-70
2021/04/21 12:44:48;;;;;;;14.23;12.90;;;17.80;49.70;;;;;;5089601;28;20262;-69
2021/04/21 12:47:14;;;;;;;14.67;12.27;;;17.70;50.50;;;;;;5090204;28;20529;-70
2021/04/21 12:52:18;;;;;;;17.40;12.57;;;17.60;50.10;;;;;;5111134;27;20514;-69
2021/04/21 12:57:22;;;;;;;14.00;11.90;;;17.40;50.20;;;;;;5101452;27;20518;-70
2021/04/21 13:02:45;;;;;;;16.50;12.33;;;17.40;50.60;;;;;;5111713;27;20567;-70
2021/04/21 13:05:13;;;;;;;13.90;12.50;;;17.30;50.90;;;;;;5095999;28;20465;-70
2021/04/21 13:07:39;;;;;;;13.50;12.20;;;17.20;50.80;;;;;;5111065;28;20423;-70
2021/04/21 13:10:10;;;;;;;13.97;12.57;;;17.20;51.10;;;;;;5110886;28;20380;-70
2021/04/21 13:12:36;;;;;;;15.40;13.77;;;17.20;51.50;;;;;;5110653;28;20185;-70
2021/04/21 13:15:20;;;;;;;14.83;13.53;;;17.20;51.80;;;;;;5094419;28;20921;-70
2021/04/21 13:17:48;;;;;;;17.10;14.47;;;17.10;51.50;;;;;;5090849;28;20866;-70
2021/04/21 13:20:14;;;;;;;14.70;13.20;;;17.10;52.00;;;;;;5090424;28;20773;-70
2021/04/21 13:22:40;;;;;;;14.83;13.33;;;17.00;52.10;;;;;;5090319;28;20397;-70
2021/04/21 13:25:11;;;;;;;14.90;13.27;;;16.90;52.20;;;;;;5090251;28;20435;-70
2021/04/21 13:27:38;;;;;;;14.33;12.83;;;16.80;52.60;;;;;;5090202;28;20158;-70
2021/04/21 13:30:15;;;;;;;15.47;13.87;;;16.80;53.10;;;;;;5090512;28;20399;-70
2021/04/21 13:32:46;;;;;;;16.33;14.53;;;16.80;53.30;;;;;;5089990;28;20913;-70
2021/04/21 13:35:15;;;;;;;16.00;14.33;;;16.90;52.70;;;;;;5089929;28;20397;-70
2021/04/21 13:37:41;;;;;;;19.17;12.37;;;17.00;52.60;;;;;;5090064;28;20396;-70
2021/04/21 13:40:09;;;;;;;15.43;13.83;;;17.10;52.70;;;;;;5089860;28;20424;-70
2021/04/21 13:42:38;;;;;;;15.63;13.17;;;17.30;52.40;;;;;;5089899;28;20157;-70
2021/04/21 13:45:06;;;;;;;16.50;13.27;;;17.40;52.20;;;;;;5090472;28;20409;-70
2021/04/21 13:47:32;;;;;;;13.20;11.97;;;17.60;52.40;;;;;;5089293;28;20830;-70
2021/04/21 13:49:57;;;;;;;14.90;13.40;;;17.70;52.50;;;;;;5089927;28;20472;-69
2021/04/21 13:52:23;;;;;;;15.30;13.73;;;17.80;51.60;;;;;;5089557;28;20151;-70
2021/04/21 13:54:48;;;;;;;17.10;15.40;;;17.90;52.10;;;;;;5089651;28;20218;-70
2021/04/21 13:57:14;;;;;;;18.30;16.03;;;17.90;51.50;;;;;;5089692;28;20257;-70
2021/04/21 13:59:41;;;;;;;16.13;14.50;;;17.90;51.60;;;;;;5090513;28;20266;-70
2021/04/21 14:02:08;;;;;;;16.87;14.87;;;17.80;51.40;;;;;;5089568;28;20287;-70
2021/04/21 14:04:35;;;;;;;19.87;18.17;;;17.70;52.20;;;;;;5089126;28;20417;-70
2021/04/21 14:07:00;;;;;;;22.07;19.83;;;17.60;52.50;;;;;;5089701;28;20425;-67
2021/04/21 14:09:26;;;;;;;20.50;18.60;;;17.60;52.60;;;;;;5089380;28;20421;-67
2021/04/21 14:11:52;;;;;;;20.00;17.97;;;17.70;52.30;;;;;;5086803;28;20218;-67
2021/04/21 14:14:17;;;;;;;18.83;16.93;;;17.80;52.70;;;;;;5076650;28;20167;-68
2021/04/21 14:16:43;;;;;;;16.80;15.20;;;17.90;52.80;;;;;;5076121;28;20195;-67
2021/04/21 14:19:08;;;;;;;18.03;16.23;;;18.00;52.80;;;;;;5075815;28;20163;-67
2021/04/21 14:21:34;;;;;;;17.70;16.10;;;18.10;52.70;;;;;;5074889;28;20290;-67
2021/04/21 14:24:00;;;;;;;19.80;16.40;;;18.20;52.70;;;;;;5075468;28;20212;-67
2021/04/21 14:26:26;;;;;;;19.10;17.03;;;18.30;52.40;;;;;;5075622;28;20401;-68
2021/04/21 14:28:51;;;;;;;16.73;15.03;;;18.40;52.20;;;;;;5076859;28;20159;-68
2021/04/21 14:31:17;;;;;;;18.93;15.17;;;18.30;51.80;;;;;;5076144;28;20182;-70
2021/04/21 14:33:42;;;;;;;19.17;15.63;;;18.30;52.50;;;;;;5075758;28;20632;-67
2021/04/21 14:36:08;;;;;;;16.50;14.90;;;18.10;52.70;;;;;;5075475;28;20152;-67
2021/04/21 14:38:34;;;;;;;22.03;17.10;;;18.00;52.90;;;;;;5074662;28;20176;-67
2021/04/21 14:40:59;;;;;;;17.73;14.73;;;17.90;53.00;;;;;;5075334;28;20179;-67
2021/04/21 14:43:25;;;;;;;18.07;16.40;;;17.70;53.40;;;;;;5075981;28;20176;-70
2021/04/21 14:45:51;;;;;;;22.03;16.70;;;17.40;53.30;;;;;;5075409;28;20600;-70
2021/04/21 14:48:16;;;;;;;17.87;16.07;;;17.20;54.20;;;;;;5075946;28;20266;-70
2021/04/21 14:50:42;;;;;;;17.37;15.00;;;17.10;54.40;;;;;;5075013;28;20413;-70
2021/04/21 14:53:08;;;;;;;19.27;15.80;;;17.00;55.40;;;;;;5075278;28;20171;-70
2021/04/21 14:55:34;;;;;;;25.03;17.40;;;16.90;55.20;;;;;;5074396;28;20240;-70
2021/04/21 14:57:59;;;;;;;17.53;15.77;;;16.90;55.60;;;;;;5075791;28;20163;-70
2021/04/21 15:00:25;;;;;;;17.73;15.50;;;16.80;54.70;;;;;;5074849;28;20457;-70
2021/04/21 15:02:51;;;;;;;18.43;16.20;;;16.80;55.40;;;;;;5074974;28;20211;-70
2021/04/21 15:05:16;;;;;;;16.50;14.90;;;16.80;55.10;;;;;;5075112;28;20790;-70
2021/04/21 15:07:43;;;;;;;19.30;16.97;;;16.70;55.40;;;;;;5074898;28;20522;-70
2021/04/21 15:10:10;;;;;;;17.13;15.20;;;16.60;55.90;;;;;;5075167;28;20156;-70
2021/04/21 15:12:37;;;;;;;19.53;16.73;;;16.60;56.10;;;;;;5072296;28;20407;-70
2021/04/21 15:15:04;;;;;;;17.83;16.10;;;16.60;55.90;;;;;;5054929;28;20414;-70
2021/04/21 15:17:30;;;;;;;16.20;14.57;;;16.60;56.00;;;;;;5054539;28;20399;-70
2021/04/21 15:19:57;;;;;;;19.10;15.83;;;16.70;55.60;;;;;;5054615;28;20387;-70
2021/04/21 15:22:23;;;;;;;18.83;16.80;;;16.70;55.80;;;;;;5054465;28;20276;-70
2021/04/21 15:24:49;;;;;;;21.97;16.77;;;16.80;55.90;;;;;;5053978;28;20427;-70
2021/04/21 15:27:16;;;;;;;19.90;17.80;;;16.80;56.20;;;;;;5055342;28;20419;-70
2021/04/21 15:29:47;;;;;;;18.13;16.37;;;16.70;55.80;;;;;;5055122;28;20513;-70
2021/04/21 15:32:13;;;;;;;20.70;15.93;;;16.70;56.10;;;;;;5054422;28;20401;-70
2021/04/21 15:34:40;;;;;;;17.47;15.70;;;16.60;55.90;;;;;;5054212;28;20403;-70
2021/04/21 15:37:08;;;;;;;18.63;14.97;;;16.50;56.00;;;;;;5054402;28;20437;-70
2021/04/21 15:39:33;;;;;;;17.20;15.40;;;16.50;56.40;;;;;;5054870;28;20907;-70
2021/04/21 15:41:59;;;;;;;17.87;15.97;;;16.40;55.70;;;;;;5055013;28;20438;-70
2021/04/21 15:44:25;;;;;;;17.10;15.30;;;16.40;55.80;;;;;;5054331;28;20203;-70
2021/04/21 15:46:51;;;;;;;16.60;14.90;;;16.30;56.00;;;;;;5054775;28;20411;-70
2021/04/21 15:49:20;;;;;;;14.80;13.30;;;16.30;56.50;;;;;;5054108;28;20868;-70